Time;durP1;ratioP1;P1;durP2;ratioP2;P2;SDS_P1;SDS_P2;PMS_P1;PMS_P2;Temp;Humidity;BMP_temperature;BMP_pressure;BME280_temperature;BME280_humidity;BME280_pressure;Samples;Min_cycle;Max_cycle;Signal;HPM_P1;HPM_P2
2023/02/18 00:01:30;;;;;;;2.57;1.60;;;11.50;1.00;;;;;;5045103;28;20195;-58
2023/02/18 00:03:57;;;;;;;4.30;1.50;;;11.50;1.00;;;;;;5048774;28;20803;-57
2023/02/18 00:06:32;;;;;;;2.43;1.63;;;11.40;1.00;;;;;;5045114;28;20205;-58
2023/02/18 00:09:00;;;;;;;2.50;1.53;;;11.40;1.00;;;;;;5050174;28;20446;-58
2023/02/18 00:11:27;;;;;;;2.87;1.67;;;11.50;1.00;;;;;;5051598;28;20508;-59
2023/02/18 00:13:57;;;;;;;4.30;1.67;;;11.40;1.00;;;;;;5042399;28;20452;-59
2023/02/18 00:16:24;;;;;;;3.13;1.60;;;11.40;1.00;;;;;;5048309;28;20450;-59
2023/02/18 00:18:53;;;;;;;8.50;2.83;;;11.40;1.00;;;;;;5047627;28;20975;-56
2023/02/18 00:21:19;;;;;;;8.80;2.20;;;11.40;1.00;;;;;;5049779;28;20439;-57
2023/02/18 00:23:44;;;;;;;2.53;1.70;;;11.40;1.00;;;;;;5046806;28;21059;-58
2023/02/18 00:26:12;;;;;;;10.23;1.63;;;11.20;1.00;;;;;;5047034;28;20196;-59
2023/02/18 00:28:38;;;;;;;6.13;1.90;;;11.20;1.00;;;;;;5042029;28;20571;-57
2023/02/18 00:31:19;;;;;;;2.83;1.23;;;11.10;1.00;;;;;;5046597;28;20541;-58
2023/02/18 00:33:44;;;;;;;7.60;1.77;;;11.10;1.00;;;;;;5045094;28;20201;-58
2023/02/18 00:36:13;;;;;;;5.03;1.73;;;11.10;1.00;;;;;;5048719;28;20466;-57
2023/02/18 00:38:42;;;;;;;2.93;1.30;;;11.10;1.00;;;;;;5047108;28;20238;-58
2023/02/18 00:41:07;;;;;;;3.17;1.50;;;11.20;1.00;;;;;;5048365;28;20462;-59
2023/02/18 00:43:33;;;;;;;2.47;1.50;;;11.20;1.00;;;;;;5051246;28;20450;-58
2023/02/18 00:45:59;;;;;;;6.93;1.67;;;11.20;1.00;;;;;;5035958;28;20220;-58
2023/02/18 00:48:24;;;;;;;5.87;2.63;;;11.30;1.00;;;;;;5049964;28;20704;-58
2023/02/18 00:50:50;;;;;;;3.00;1.70;;;11.30;1.00;;;;;;5043691;28;20192;-58
2023/02/18 00:53:15;;;;;;;2.40;1.43;;;11.20;1.00;;;;;;5046483;28;20298;-58
2023/02/18 00:55:43;;;;;;;3.13;1.33;;;11.30;1.00;;;;;;5050388;28;20220;-58
2023/02/18 00:58:10;;;;;;;4.50;1.70;;;11.30;1.00;;;;;;5041848;28;20199;-58
2023/02/18 01:00:35;;;;;;;3.10;1.60;;;11.20;1.00;;;;;;5043447;28;20509;-58
2023/02/18 01:03:01;;;;;;;4.10;1.30;;;11.20;1.00;;;;;;5046089;28;20546;-58
2023/02/18 01:05:27;;;;;;;3.50;1.40;;;11.20;1.00;;;;;;5048104;28;20694;-59
2023/02/18 01:07:53;;;;;;;3.70;1.80;;;11.20;1.00;;;;;;5046624;28;20537;-58
2023/02/18 01:10:19;;;;;;;2.03;1.40;;;11.20;1.00;;;;;;5040367;28;20443;-58
2023/02/18 01:12:45;;;;;;;2.93;1.43;;;11.10;1.00;;;;;;5045117;28;21297;-58
2023/02/18 01:15:14;;;;;;;3.70;1.90;;;11.10;1.00;;;;;;5042870;28;20910;-57
2023/02/18 01:17:40;;;;;;;3.10;1.87;;;11.20;1.00;;;;;;5042948;28;20181;-58
2023/02/18 01:20:07;;;;;;;3.70;1.60;;;11.20;1.00;;;;;;5044321;28;20994;-58
2023/02/18 01:22:32;;;;;;;3.80;1.40;;;11.30;1.00;;;;;;5047172;28;20192;-59
2023/02/18 01:24:58;;;;;;;2.63;1.50;;;11.10;1.00;;;;;;5042913;28;20445;-58
2023/02/18 01:27:24;;;;;;;6.53;1.67;;;11.00;1.00;;;;;;5046573;28;20195;-58
2023/02/18 01:29:49;;;;;;;4.10;1.73;;;11.00;1.00;;;;;;5054846;28;20185;-57
2023/02/18 01:32:15;;;;;;;4.90;1.80;;;11.10;1.00;;;;;;5047498;28;20192;-57
2023/02/18 01:34:41;;;;;;;3.57;1.37;;;11.10;1.00;;;;;;5044612;28;20291;-58
2023/02/18 01:37:06;;;;;;;5.47;1.67;;;11.10;1.00;;;;;;5056432;28;20188;-59
2023/02/18 01:39:32;;;;;;;3.20;1.50;;;10.90;1.00;;;;;;5042452;28;20223;-58
2023/02/18 01:41:58;;;;;;;2.80;2.03;;;10.80;1.00;;;;;;5050767;28;20195;-59
2023/02/18 01:44:26;;;;;;;5.10;1.53;;;10.70;1.00;;;;;;5043393;28;20196;-58
2023/02/18 01:46:52;;;;;;;2.60;1.53;;;10.80;1.00;;;;;;5044721;28;20181;-58
2023/02/18 01:49:38;;;;;;;4.83;1.60;;;10.70;1.00;;;;;;5038335;28;20753;-58
2023/02/18 01:52:31;;;;;;;3.27;1.93;;;10.60;1.00;;;;;;5041528;28;20891;-58
2023/02/18 01:54:58;;;;;;;2.93;1.50;;;10.60;1.00;;;;;;5045983;28;20471;-58
2023/02/18 01:57:28;;;;;;;3.93;1.77;;;10.60;1.00;;;;;;5041493;28;20455;-59
2023/02/18 02:00:02;;;;;;;8.00;1.83;;;10.60;1.00;;;;;;5043638;28;20430;-58
2023/02/18 02:02:31;;;;;;;3.00;1.67;;;10.70;1.00;;;;;;5043578;28;20443;-58
2023/02/18 02:04:56;;;;;;;8.70;2.13;;;10.70;1.00;;;;;;5045063;28;20787;-58
2023/02/18 02:07:24;;;;;;;6.63;2.40;;;10.80;1.00;;;;;;5043081;28;20443;-59
2023/02/18 02:09:52;;;;;;;5.93;1.70;;;10.80;1.00;;;;;;5040723;28;20201;-57
2023/02/18 02:12:38;;;;;;;5.40;2.10;;;10.70;1.00;;;;;;5044364;28;20462;-58
2023/02/18 02:15:27;;;;;;;3.57;1.80;;;10.60;1.00;;;;;;5043474;28;20505;-58
2023/02/18 02:18:18;;;;;;;5.40;3.10;;;10.60;1.00;;;;;;5047003;28;20439;-58
2023/02/18 02:21:14;;;;;;;4.33;2.40;;;10.50;1.00;;;;;;5045632;28;20775;-57
2023/02/18 02:24:07;;;;;;;4.50;1.80;;;10.60;1.00;;;;;;5040655;28;20462;-58
2023/02/18 02:26:51;;;;;;;3.60;1.60;;;10.60;1.00;;;;;;5048069;28;20497;-57
2023/02/18 02:29:45;;;;;;;3.60;1.97;;;10.60;1.00;;;;;;5044229;28;20454;-58
2023/02/18 02:32:25;;;;;;;3.40;2.10;;;10.50;1.00;;;;;;5045896;28;20503;-58
2023/02/18 02:35:16;;;;;;;2.47;1.40;;;10.50;1.00;;;;;;5044669;28;20470;-58
2023/02/18 02:37:53;;;;;;;4.53;2.07;;;10.60;1.00;;;;;;5028711;28;20459;-58
2023/02/18 02:40:21;;;;;;;3.30;1.53;;;10.50;1.00;;;;;;5040741;28;20409;-58
2023/02/18 02:43:18;;;;;;;4.97;3.63;;;10.50;1.00;;;;;;5044253;28;20979;-58
2023/02/18 02:45:53;;;;;;;4.33;1.63;;;10.60;1.00;;;;;;5041352;28;20456;-58
2023/02/18 02:48:24;;;;;;;4.73;1.83;;;10.50;1.00;;;;;;5042431;28;20434;-57
2023/02/18 02:51:11;;;;;;;6.63;1.67;;;10.50;1.00;;;;;;5037990;28;20532;-58
2023/02/18 02:53:40;;;;;;;3.60;1.07;;;10.60;1.00;;;;;;5044293;28;20469;-58
2023/02/18 02:56:09;;;;;;;4.60;1.70;;;10.50;1.00;;;;;;5044847;28;20442;-58
2023/02/18 02:58:35;;;;;;;5.47;1.30;;;10.60;1.00;;;;;;5050043;28;20456;-58
2023/02/18 03:01:06;;;;;;;2.33;1.30;;;10.60;1.00;;;;;;5046638;28;20526;-58
2023/02/18 03:03:53;;;;;;;2.87;1.30;;;10.70;1.00;;;;;;5039159;28;20911;-58
2023/02/18 03:06:18;;;;;;;3.13;1.10;;;10.70;1.00;;;;;;5045877;28;20963;-58
2023/02/18 03:09:05;;;;;;;8.40;1.83;;;10.70;1.00;;;;;;5045244;28;20443;-58
2023/02/18 03:11:55;;;;;;;4.10;0.80;;;10.60;1.00;;;;;;5043528;28;21312;-58
2023/02/18 03:14:35;;;;;;;6.00;1.30;;;10.70;1.00;;;;;;5030752;28;20977;-58
2023/02/18 03:17:04;;;;;;;3.53;1.37;;;10.80;1.00;;;;;;5044435;28;20533;-58
2023/02/18 03:19:46;;;;;;;2.20;1.10;;;10.80;1.00;;;;;;5046139;28;20446;-58
2023/02/18 03:22:24;;;;;;;9.60;1.47;;;10.70;1.00;;;;;;5048218;28;20443;-58
2023/02/18 03:24:53;;;;;;;3.00;1.17;;;10.70;1.00;;;;;;5046693;28;20571;-57
2023/02/18 03:27:24;;;;;;;6.30;1.70;;;10.60;1.00;;;;;;5044229;28;20497;-57
2023/02/18 03:30:01;;;;;;;8.53;2.00;;;10.60;1.00;;;;;;5047410;28;20454;-58
2023/02/18 03:32:29;;;;;;;4.10;1.20;;;10.70;1.00;;;;;;5036385;28;20462;-57
2023/02/18 03:34:59;;;;;;;2.30;1.00;;;10.60;1.00;;;;;;5030077;28;20557;-57
2023/02/18 03:37:26;;;;;;;5.10;1.30;;;10.70;1.00;;;;;;5031894;28;20520;-58
2023/02/18 03:39:55;;;;;;;2.10;1.00;;;10.70;1.00;;;;;;5034367;28;20948;-58
2023/02/18 03:42:27;;;;;;;4.67;1.77;;;10.70;1.00;;;;;;5032208;28;20846;-59
2023/02/18 03:44:53;;;;;;;3.23;1.37;;;10.60;1.00;;;;;;5037018;28;20454;-58
2023/02/18 03:47:19;;;;;;;5.13;1.33;;;10.60;1.00;;;;;;5042678;28;20834;-58
2023/02/18 03:49:45;;;;;;;5.17;1.83;;;10.60;1.00;;;;;;5041482;28;20446;-58
2023/02/18 03:52:10;;;;;;;4.23;1.33;;;10.60;1.00;;;;;;5044463;28;20638;-59
2023/02/18 03:54:36;;;;;;;4.13;1.20;;;10.60;1.00;;;;;;5043461;28;20755;-57
2023/02/18 03:57:02;;;;;;;6.60;1.40;;;10.60;1.00;;;;;;5043690;28;20188;-58
2023/02/18 03:59:28;;;;;;;2.40;1.20;;;10.60;1.00;;;;;;5043855;28;20192;-57
2023/02/18 04:01:53;;;;;;;5.27;2.20;;;10.60;1.00;;;;;;5041118;28;20462;-57
2023/02/18 04:04:19;;;;;;;3.47;0.90;;;10.60;1.00;;;;;;5044756;28;20250;-58
2023/02/18 04:06:45;;;;;;;7.13;1.90;;;10.70;1.00;;;;;;5043232;28;20658;-58
2023/02/18 04:09:10;;;;;;;8.93;2.10;;;10.60;1.00;;;;;;5044399;28;20188;-58
2023/02/18 04:11:38;;;;;;;7.83;1.70;;;10.70;1.00;;;;;;5045579;28;20197;-57
2023/02/18 04:14:05;;;;;;;1.80;1.33;;;10.60;1.00;;;;;;5045692;28;20204;-58
2023/02/18 04:16:30;;;;;;;9.57;1.77;;;10.50;1.00;;;;;;5040636;28;21106;-57
2023/02/18 04:18:56;;;;;;;4.30;1.60;;;10.50;1.00;;;;;;5037613;28;20427;-58
2023/02/18 04:21:22;;;;;;;3.23;2.00;;;10.50;1.00;;;;;;5042725;28;20655;-57
2023/02/18 04:23:47;;;;;;;4.90;1.77;;;10.50;1.00;;;;;;5045607;28;20223;-58
2023/02/18 04:26:13;;;;;;;8.03;1.63;;;10.50;1.00;;;;;;5038834;28;20637;-58
2023/02/18 04:28:39;;;;;;;2.30;1.47;;;10.50;1.00;;;;;;5048095;28;20193;-59
2023/02/18 04:31:04;;;;;;;4.33;1.80;;;10.60;1.00;;;;;;5049946;28;20199;-59
2023/02/18 04:33:30;;;;;;;6.40;1.67;;;10.50;1.00;;;;;;5045472;28;20731;-57
2023/02/18 04:35:55;;;;;;;7.13;1.97;;;10.50;1.00;;;;;;5049314;28;20245;-58
2023/02/18 04:38:21;;;;;;;7.57;1.87;;;10.50;1.00;;;;;;5047311;28;20196;-57
2023/02/18 04:40:47;;;;;;;6.70;2.30;;;10.50;1.00;;;;;;5044834;28;20219;-57
2023/02/18 04:43:12;;;;;;;2.73;1.50;;;10.50;1.00;;;;;;5048081;28;20193;-58
2023/02/18 04:45:38;;;;;;;5.80;2.13;;;10.60;1.00;;;;;;5042968;28;20188;-58
2023/02/18 04:48:04;;;;;;;2.57;1.50;;;10.60;1.00;;;;;;5041662;28;20223;-58
2023/02/18 04:50:29;;;;;;;2.10;1.40;;;10.60;1.00;;;;;;5049336;28;20234;-59
2023/02/18 04:52:55;;;;;;;5.70;1.90;;;10.70;1.00;;;;;;5045381;28;20478;-58
2023/02/18 04:55:21;;;;;;;10.70;3.00;;;10.80;1.00;;;;;;5045037;28;20236;-57
2023/02/18 04:57:46;;;;;;;5.27;2.20;;;10.80;1.00;;;;;;5048622;28;20226;-57
2023/02/18 05:00:18;;;;;;;4.30;1.87;;;10.70;1.00;;;;;;5046456;28;20196;-57
2023/02/18 05:02:44;;;;;;;6.17;2.60;;;10.60;1.00;;;;;;5044720;28;20638;-58
2023/02/18 05:05:10;;;;;;;4.10;2.73;;;10.70;1.00;;;;;;5046639;28;20534;-57
2023/02/18 05:07:36;;;;;;;5.53;2.60;;;10.60;1.00;;;;;;5046798;28;20487;-58
2023/02/18 05:10:03;;;;;;;15.63;3.90;;;10.60;1.00;;;;;;5038024;28;20460;-57
2023/02/18 05:12:28;;;;;;;8.30;3.33;;;10.60;1.00;;;;;;5047017;28;20199;-58
2023/02/18 05:14:54;;;;;;;8.30;3.43;;;10.50;1.00;;;;;;5046607;28;21024;-57
2023/02/18 05:17:20;;;;;;;5.40;2.80;;;10.50;1.00;;;;;;5041594;28;20201;-57
2023/02/18 05:19:45;;;;;;;5.33;2.40;;;10.50;1.00;;;;;;5043948;28;20218;-57
2023/02/18 05:22:11;;;;;;;4.40;2.03;;;10.60;1.00;;;;;;5046150;28;20177;-58
2023/02/18 05:24:36;;;;;;;6.70;2.93;;;10.60;1.00;;;;;;5045182;28;20184;-58
2023/02/18 05:27:02;;;;;;;8.03;2.97;;;10.70;1.00;;;;;;5043815;28;20617;-58
2023/02/18 05:29:28;;;;;;;7.70;2.57;;;10.70;1.00;;;;;;5048278;28;20191;-58
2023/02/18 05:31:53;;;;;;;6.53;2.80;;;10.70;1.00;;;;;;5051052;28;20627;-57
2023/02/18 05:34:19;;;;;;;6.33;3.20;;;10.70;1.00;;;;;;5042790;28;20208;-57
2023/02/18 05:36:45;;;;;;;5.63;2.83;;;10.70;1.00;;;;;;5048159;28;20587;-58
2023/02/18 05:39:10;;;;;;;4.57;2.80;;;10.80;1.00;;;;;;5047645;28;20276;-57
2023/02/18 05:41:36;;;;;;;9.00;3.17;;;10.70;1.00;;;;;;5050465;28;20554;-58
2023/02/18 05:46:46;;;;;;;6.10;3.27;;;10.70;1.00;;;;;;5046309;28;20260;-57
2023/02/18 05:49:11;;;;;;;4.83;2.93;;;10.80;1.00;;;;;;5041041;28;22374;-59
2023/02/18 05:51:37;;;;;;;5.30;3.20;;;10.70;1.00;;;;;;5043795;28;20199;-58
2023/02/18 05:54:03;;;;;;;8.80;4.00;;;10.30;1.00;;;;;;5045590;28;20235;-58
2023/02/18 05:56:29;;;;;;;9.10;3.90;;;10.70;1.00;;;;;;5041603;28;20184;-57
2023/02/18 05:58:55;;;;;;;7.63;3.23;;;10.80;1.00;;;;;;5044559;28;20472;-58
2023/02/18 06:01:20;;;;;;;10.33;3.13;;;10.70;1.00;;;;;;5046900;28;20919;-58
2023/02/18 06:03:46;;;;;;;5.80;3.57;;;10.80;1.00;;;;;;5048235;28;20230;-58
2023/02/18 06:06:12;;;;;;;4.40;3.83;;;10.70;1.00;;;;;;5046413;28;20565;-57
2023/02/18 06:08:37;;;;;;;8.37;3.33;;;10.80;1.00;;;;;;5044484;28;20201;-59
2023/02/18 06:11:03;;;;;;;5.67;3.03;;;10.70;1.00;;;;;;5049464;28;20192;-57
2023/02/18 06:13:29;;;;;;;8.80;4.37;;;10.70;1.00;;;;;;5038395;28;20224;-58
2023/02/18 06:15:54;;;;;;;10.97;4.40;;;10.80;1.00;;;;;;5041992;28;20203;-57
2023/02/18 06:18:20;;;;;;;4.80;3.90;;;10.90;1.00;;;;;;5043941;28;20200;-57
2023/02/18 06:20:47;;;;;;;7.50;4.40;;;10.90;1.00;;;;;;5044124;28;20719;-57
2023/02/18 06:23:14;;;;;;;8.73;4.90;;;10.80;1.00;;;;;;5044614;28;20432;-58
2023/02/18 06:25:40;;;;;;;7.77;3.93;;;10.90;1.00;;;;;;5044840;28;20425;-57
2023/02/18 06:28:05;;;;;;;9.10;5.00;;;10.90;1.00;;;;;;5041884;28;20520;-57
2023/02/18 06:30:31;;;;;;;8.67;4.40;;;10.90;1.00;;;;;;5046854;28;20450;-57
2023/02/18 06:32:57;;;;;;;9.77;4.23;;;10.80;1.00;;;;;;5043270;28;20266;-56
2023/02/18 06:35:22;;;;;;;8.53;5.97;;;10.70;1.00;;;;;;5043053;28;20224;-57
2023/02/18 06:37:48;;;;;;;9.80;5.30;;;10.70;1.00;;;;;;5043595;28;20177;-58
2023/02/18 06:40:14;;;;;;;8.07;5.40;;;10.70;1.00;;;;;;5045862;28;20238;-58
2023/02/18 06:42:39;;;;;;;12.30;5.60;;;10.70;1.00;;;;;;5047358;28;20260;-58
2023/02/18 06:45:05;;;;;;;7.37;4.77;;;10.70;1.00;;;;;;5041865;28;20196;-58
2023/02/18 06:47:32;;;;;;;7.80;5.13;;;10.80;1.00;;;;;;5043958;28;20189;-58
2023/02/18 06:49:57;;;;;;;15.13;5.63;;;10.90;1.00;;;;;;5043036;28;20200;-58
2023/02/18 06:52:23;;;;;;;9.23;6.40;;;11.00;1.00;;;;;;5045945;28;20928;-58
2023/02/18 06:54:49;;;;;;;10.90;6.03;;;10.90;1.00;;;;;;5043874;28;20232;-58
2023/02/18 06:57:14;;;;;;;12.80;5.97;;;10.80;1.00;;;;;;5043622;28;20197;-57
2023/02/18 06:59:40;;;;;;;11.87;6.17;;;10.80;1.00;;;;;;5049945;28;20180;-58
2023/02/18 07:02:06;;;;;;;11.23;6.43;;;10.90;1.00;;;;;;5044195;28;20195;-57
2023/02/18 07:04:31;;;;;;;11.03;7.00;;;10.80;1.00;;;;;;5046807;28;20275;-57
2023/02/18 07:06:57;;;;;;;11.80;6.80;;;10.70;1.00;;;;;;5043625;28;20201;-58
2023/02/18 07:09:22;;;;;;;13.17;7.67;;;10.70;1.00;;;;;;5045500;28;20196;-58
2023/02/18 07:11:48;;;;;;;12.07;8.07;;;10.70;1.00;;;;;;5045008;28;20188;-58
2023/02/18 07:14:14;;;;;;;14.93;8.00;;;10.80;1.00;;;;;;5042610;28;20624;-57
2023/02/18 07:16:39;;;;;;;14.00;7.87;;;10.90;1.00;;;;;;5049997;28;20640;-57
2023/02/18 07:19:05;;;;;;;13.87;8.00;;;11.00;1.00;;;;;;5046520;28;20192;-58
2023/02/18 07:21:31;;;;;;;11.73;7.90;;;11.00;1.00;;;;;;5046872;28;20196;-58
2023/02/18 07:23:56;;;;;;;10.17;7.70;;;11.00;1.00;;;;;;5046062;28;20651;-57
2023/02/18 07:26:22;;;;;;;15.33;8.70;;;11.00;1.00;;;;;;5045546;28;20189;-58
2023/02/18 07:28:47;;;;;;;11.37;8.13;;;11.00;1.00;;;;;;5040645;28;21550;-57
2023/02/18 07:31:13;;;;;;;15.30;7.60;;;11.00;1.00;;;;;;5045467;28;20241;-58
2023/02/18 07:33:39;;;;;;;16.50;7.80;;;11.00;1.00;;;;;;5047520;28;20223;-58
2023/02/18 07:36:05;;;;;;;11.43;8.93;;;11.00;1.00;;;;;;5044508;28;20277;-58
2023/02/18 07:38:30;;;;;;;12.80;8.03;;;11.00;1.00;;;;;;5042666;28;20193;-58
2023/02/18 07:40:57;;;;;;;10.90;7.40;;;11.10;1.00;;;;;;5045479;28;20447;-58
2023/02/18 07:43:23;;;;;;;8.37;7.17;;;11.10;1.00;;;;;;5047429;28;20639;-58
2023/02/18 07:45:48;;;;;;;11.03;7.30;;;11.00;1.00;;;;;;5041832;28;20483;-58
2023/02/18 07:48:15;;;;;;;16.80;8.00;;;11.00;1.00;;;;;;5046545;28;20581;-57
2023/02/18 07:50:42;;;;;;;14.70;9.07;;;10.90;1.00;;;;;;5049932;28;20192;-59
2023/02/18 07:53:10;;;;;;;10.50;8.57;;;10.80;1.00;;;;;;5047564;28;21057;-58
2023/02/18 07:55:48;;;;;;;12.33;7.70;;;10.80;1.00;;;;;;5042496;28;21188;-58
2023/02/18 07:58:25;;;;;;;10.23;7.37;;;10.70;1.00;;;;;;5055518;28;20958;-58
2023/02/18 08:00:52;;;;;;;13.47;8.10;;;10.70;1.00;;;;;;5042027;28;20446;-58
2023/02/18 08:03:20;;;;;;;12.00;7.30;;;10.70;13.40;;;;;;5046247;28;20477;-58
2023/02/18 08:05:48;;;;;;;10.10;8.30;;;10.90;13.20;;;;;;5049008;28;20493;-57
2023/02/18 08:08:16;;;;;;;12.48;9.75;;;10.80;10.50;;;;;;5044599;28;20422;-57
2023/02/18 08:10:42;;;;;;;11.80;8.57;;;10.80;19.20;;;;;;5050100;28;20189;-58
2023/02/18 08:13:08;;;;;;;13.90;9.03;;;10.80;13.50;;;;;;5050227;28;20971;-56
2023/02/18 08:15:34;;;;;;;12.50;9.10;;;10.80;36.70;;;;;;5045274;28;20472;-57
2023/02/18 08:18:00;;;;;;;13.30;8.50;;;10.80;43.40;;;;;;5049957;28;20414;-58
2023/02/18 08:20:26;;;;;;;9.93;7.83;;;10.90;41.70;;;;;;5049918;28;20239;-58
2023/02/18 08:22:51;;;;;;;11.20;6.90;;;11.00;43.90;;;;;;5050960;28;20463;-58
2023/02/18 08:25:17;;;;;;;13.13;7.93;;;11.10;33.30;;;;;;5052170;28;20426;-57
2023/02/18 08:27:43;;;;;;;11.37;8.43;;;11.30;29.70;;;;;;5057480;28;20189;-57
2023/02/18 08:30:09;;;;;;;12.47;8.10;;;11.30;22.20;;;;;;5047745;28;20189;-57
2023/02/18 08:32:35;;;;;;;11.03;7.87;;;11.30;16.00;;;;;;5045787;28;20199;-58
2023/02/18 08:35:02;;;;;;;15.73;10.27;;;11.30;11.50;;;;;;5047299;28;20466;-57
2023/02/18 08:37:27;;;;;;;10.47;8.13;;;11.30;2.50;;;;;;5051059;28;20831;-58
2023/02/18 08:39:53;;;;;;;11.93;8.10;;;11.30;1.00;;;;;;5049636;28;20450;-57
2023/02/18 08:42:19;;;;;;;10.93;8.00;;;11.20;2.80;;;;;;5046018;28;20195;-58
2023/02/18 08:44:44;;;;;;;11.00;8.40;;;11.30;1.00;;;;;;5050924;28;20203;-57
2023/02/18 08:47:10;;;;;;;9.60;8.07;;;11.20;1.00;;;;;;5050353;28;20196;-57
2023/02/18 08:49:36;;;;;;;11.70;9.33;;;11.20;3.80;;;;;;5051990;28;20652;-58
2023/02/18 08:52:03;;;;;;;9.10;7.40;;;11.10;1.70;;;;;;5059077;28;20192;-57
2023/02/18 08:54:29;;;;;;;11.30;7.90;;;11.20;3.00;;;;;;5050862;28;20311;-58
2023/02/18 08:56:58;;;;;;;10.60;8.43;;;11.30;3.00;;;;;;5046332;28;20481;-59
2023/02/18 08:59:24;;;;;;;11.80;8.60;;;11.30;1.00;;;;;;5043036;28;20968;-58
2023/02/18 09:01:50;;;;;;;12.90;9.17;;;11.40;1.00;;;;;;5046702;28;20446;-58
2023/02/18 09:04:16;;;;;;;12.30;7.90;;;11.40;2.90;;;;;;5049130;28;20200;-58
2023/02/18 09:06:42;;;;;;;12.90;8.73;;;11.30;2.10;;;;;;5050992;28;20268;-58
2023/02/18 09:09:09;;;;;;;11.17;9.27;;;11.40;3.40;;;;;;5046946;28;20911;-60
2023/02/18 09:11:35;;;;;;;11.67;8.40;;;11.40;6.20;;;;;;5048583;28;20247;-59
2023/02/18 09:14:01;;;;;;;11.60;8.57;;;11.50;10.60;;;;;;5056817;28;20470;-59
2023/02/18 09:16:28;;;;;;;11.00;9.53;;;11.50;3.20;;;;;;5037213;28;20455;-57
2023/02/18 09:18:54;;;;;;;9.73;7.87;;;11.70;1.00;;;;;;5048135;28;20443;-59
2023/02/18 09:21:21;;;;;;;10.03;8.40;;;11.70;1.00;;;;;;5048613;28;20447;-59
2023/02/18 09:23:47;;;;;;;14.83;8.50;;;11.60;1.00;;;;;;5051046;28;20909;-58
2023/02/18 09:26:15;;;;;;;10.23;8.07;;;11.60;1.00;;;;;;5048793;28;20479;-58
2023/02/18 09:28:41;;;;;;;9.73;8.53;;;11.50;1.00;;;;;;5047990;28;20185;-59
2023/02/18 09:31:10;;;;;;;11.40;9.20;;;11.50;1.00;;;;;;5046771;28;20436;-59
2023/02/18 09:33:37;;;;;;;11.40;8.20;;;11.40;1.00;;;;;;5048676;28;20777;-58
2023/02/18 09:36:04;;;;;;;10.57;8.63;;;11.50;1.00;;;;;;5047379;28;20446;-59
2023/02/18 09:38:31;;;;;;;11.50;8.10;;;11.50;1.00;;;;;;5045086;28;20442;-60
2023/02/18 09:40:58;;;;;;;10.97;8.80;;;11.50;1.00;;;;;;5049530;28;20454;-58
2023/02/18 09:43:40;;;;;;;9.83;7.90;;;11.50;1.00;;;;;;5045324;28;20446;-60
2023/02/18 09:46:42;;;;;;;9.97;8.27;;;11.60;1.00;;;;;;5045795;28;20473;-58
2023/02/18 09:49:26;;;;;;;9.97;8.27;;;11.70;1.00;;;;;;5023414;28;20826;-59
2023/02/18 09:51:54;;;;;;;9.83;7.57;;;11.80;1.00;;;;;;5046393;28;20460;-58
2023/02/18 09:54:20;;;;;;;10.80;7.23;;;11.90;1.00;;;;;;5045583;28;20525;-57
2023/02/18 09:56:47;;;;;;;8.20;6.97;;;12.00;1.00;;;;;;5045989;28;21293;-58
2023/02/18 09:59:22;;;;;;;7.63;6.77;;;12.10;1.00;;;;;;5043399;28;20459;-58
2023/02/18 10:01:53;;;;;;;9.00;7.83;;;12.20;1.00;;;;;;5047655;28;20467;-58
2023/02/18 10:04:28;;;;;;;5.40;4.40;;;12.40;1.00;;;;;;5047841;28;20421;-59
2023/02/18 10:06:56;;;;;;;2.73;2.50;;;12.70;1.00;;;;;;5046097;28;20537;-58
2023/02/18 10:09:33;;;;;;;2.47;2.20;;;12.80;1.00;;;;;;5048081;28;20537;-58
2023/02/18 10:12:20;;;;;;;1.47;1.37;;;12.70;1.00;;;;;;5048509;28;20421;-59
2023/02/18 10:14:50;;;;;;;1.47;1.37;;;12.80;1.00;;;;;;5046086;28;20976;-59
2023/02/18 10:17:16;;;;;;;3.00;1.30;;;12.80;1.00;;;;;;5048723;28;20421;-58
2023/02/18 10:19:46;;;;;;;2.37;1.17;;;12.80;1.00;;;;;;5049736;28;20434;-59
2023/02/18 10:22:13;;;;;;;1.40;1.30;;;12.70;1.00;;;;;;5039691;28;20480;-58
2023/02/18 10:24:56;;;;;;;1.20;1.10;;;12.70;1.00;;;;;;5047894;28;20466;-59
2023/02/18 10:27:28;;;;;;;1.70;1.20;;;12.70;1.00;;;;;;5050225;28;20458;-57
2023/02/18 10:30:29;;;;;;;1.30;1.20;;;12.70;1.00;;;;;;5047487;28;20504;-59
2023/02/18 10:33:03;;;;;;;3.87;1.20;;;12.80;1.00;;;;;;5055317;28;20456;-58
2023/02/18 10:35:36;;;;;;;1.90;1.70;;;12.80;1.00;;;;;;5041645;28;20477;-59
2023/02/18 10:38:07;;;;;;;1.93;1.20;;;12.90;1.00;;;;;;5049322;28;20959;-59
2023/02/18 10:41:06;;;;;;;2.27;1.40;;;12.90;1.00;;;;;;5047350;28;20949;-59
2023/02/18 10:43:44;;;;;;;1.33;1.10;;;12.90;1.00;;;;;;5081668;28;20419;-58
2023/02/18 10:46:23;;;;;;;1.27;1.10;;;12.90;1.00;;;;;;5047078;28;20462;-58
2023/02/18 10:49:39;;;;;;;1.00;0.90;;;13.00;1.00;;;;;;5046817;28;20451;-59
2023/02/18 10:52:05;;;;;;;0.87;0.80;;;12.90;1.00;;;;;;5002491;28;20468;-59
2023/02/18 10:55:00;;;;;;;1.50;0.80;;;12.80;1.00;;;;;;5044907;28;20527;-59
2023/02/18 10:57:26;;;;;;;1.30;1.20;;;12.90;1.00;;;;;;5043905;28;20447;-59
2023/02/18 11:00:25;;;;;;;1.30;1.20;;;13.00;1.00;;;;;;5045481;28;20954;-61
2023/02/18 11:03:17;;;;;;;0.97;0.97;;;12.90;1.00;;;;;;5048526;28;20787;-60
2023/02/18 11:05:46;;;;;;;1.37;0.80;;;12.80;1.00;;;;;;5044078;28;20418;-60
2023/02/18 11:08:18;;;;;;;1.20;1.10;;;13.10;1.00;;;;;;5043753;28;20433;-58
2023/02/18 11:10:45;;;;;;;1.30;1.03;;;13.20;1.00;;;;;;5046225;28;21112;-59
2023/02/18 11:13:17;;;;;;;0.80;0.80;;;13.30;1.00;;;;;;5047504;28;20489;-61
2023/02/18 11:16:10;;;;;;;1.03;0.97;;;13.20;1.00;;;;;;5050177;28;20968;-59
2023/02/18 11:18:45;;;;;;;1.40;0.77;;;13.30;1.00;;;;;;5046214;28;20446;-60
2023/02/18 11:21:25;;;;;;;1.17;0.80;;;13.40;1.00;;;;;;5041427;28;20442;-60
2023/02/18 11:23:53;;;;;;;1.73;0.90;;;13.40;1.00;;;;;;5065023;28;20416;-59
2023/02/18 11:26:32;;;;;;;1.27;1.10;;;13.40;1.00;;;;;;5058507;28;21008;-58
2023/02/18 11:29:04;;;;;;;1.23;1.00;;;13.30;1.00;;;;;;5071681;28;20459;-58
2023/02/18 11:31:43;;;;;;;1.47;0.80;;;13.40;1.00;;;;;;5060248;28;20421;-60
2023/02/18 11:34:30;;;;;;;0.70;0.70;;;13.40;1.00;;;;;;5066927;28;20527;-58
2023/02/18 11:37:08;;;;;;;3.70;0.70;;;13.60;1.00;;;;;;5050454;28;20474;-59
2023/02/18 11:39:34;;;;;;;0.57;0.57;;;13.70;1.00;;;;;;5054113;28;20405;-58
2023/02/18 11:42:05;;;;;;;1.27;0.40;;;13.60;1.00;;;;;;5051939;28;20447;-59
2023/02/18 11:44:35;;;;;;;0.50;0.50;;;13.60;1.00;;;;;;5052525;28;20483;-59
2023/02/18 11:47:13;;;;;;;0.57;0.50;;;13.70;1.00;;;;;;5052209;28;20524;-60
2023/02/18 11:49:43;;;;;;;0.70;0.50;;;13.80;1.00;;;;;;5069732;28;20783;-59
2023/02/18 11:52:34;;;;;;;3.93;1.80;;;13.90;1.00;;;;;;5054633;28;20471;-59
2023/02/18 11:55:01;;;;;;;0.63;0.63;;;13.90;1.00;;;;;;5054062;28;20524;-58
2023/02/18 11:57:28;;;;;;;1.17;0.50;;;13.80;1.00;;;;;;5061425;28;20441;-60
2023/02/18 11:59:55;;;;;;;0.73;0.67;;;13.80;1.00;;;;;;5065715;28;20508;-58
2023/02/18 12:02:30;;;;;;;0.70;0.60;;;13.80;1.00;;;;;;5073761;28;20433;-58
2023/02/18 12:05:15;;;;;;;0.67;0.67;;;13.80;1.00;;;;;;5065403;28;20492;-59
2023/02/18 12:07:51;;;;;;;0.60;0.50;;;13.70;1.00;;;;;;5059175;28;20421;-61
2023/02/18 12:10:29;;;;;;;1.07;0.70;;;13.60;1.00;;;;;;5053288;28;20425;-58
2023/02/18 12:13:25;;;;;;;0.80;0.80;;;13.60;1.00;;;;;;5052578;28;20418;-58
2023/02/18 12:16:09;;;;;;;0.70;0.70;;;13.50;1.00;;;;;;5058202;28;20422;-60
2023/02/18 12:18:44;;;;;;;1.20;1.00;;;13.50;1.00;;;;;;5050031;28;20413;-59
2023/02/18 12:21:21;;;;;;;1.70;1.00;;;13.50;1.00;;;;;;5046577;28;20452;-59
2023/02/18 12:24:04;;;;;;;1.10;1.00;;;13.40;1.00;;;;;;5055119;28;20452;-59
2023/02/18 12:26:33;;;;;;;0.80;0.80;;;13.20;1.00;;;;;;5062986;28;20441;-60
2023/02/18 12:29:26;;;;;;;1.37;1.10;;;13.30;1.00;;;;;;5052602;28;20453;-60
2023/02/18 12:32:12;;;;;;;1.27;1.00;;;13.10;1.00;;;;;;5059503;28;20421;-59
2023/02/18 12:35:06;;;;;;;1.10;1.10;;;13.10;1.00;;;;;;5048565;28;20469;-59
2023/02/18 12:37:31;;;;;;;1.53;1.30;;;13.20;1.00;;;;;;5044604;28;20422;-59
2023/02/18 12:40:19;;;;;;;1.27;1.17;;;13.20;1.00;;;;;;5044742;28;20500;-59
2023/02/18 12:43:09;;;;;;;2.00;1.33;;;13.10;1.00;;;;;;5046064;28;20200;-58
2023/02/18 12:45:49;;;;;;;1.70;1.60;;;13.00;1.00;;;;;;5045882;28;20439;-59
2023/02/18 12:48:47;;;;;;;1.20;1.10;;;13.00;1.00;;;;;;5047128;28;20426;-59
2023/02/18 12:51:35;;;;;;;1.20;1.10;;;13.10;1.00;;;;;;5030931;28;20991;-58
2023/02/18 12:54:14;;;;;;;1.53;1.30;;;12.90;1.00;;;;;;5044141;28;20517;-58
2023/02/18 12:57:04;;;;;;;2.40;1.67;;;12.90;1.00;;;;;;5055128;28;20449;-58
2023/02/18 12:59:54;;;;;;;1.90;1.80;;;12.90;1.00;;;;;;5050043;28;20497;-59
2023/02/18 13:02:40;;;;;;;1.80;1.70;;;12.70;1.00;;;;;;5051036;28;20500;-59
2023/02/18 13:05:45;;;;;;;2.03;1.43;;;12.80;1.00;;;;;;5052510;28;20422;-59
2023/02/18 13:08:13;;;;;;;2.33;1.83;;;12.90;1.00;;;;;;5003290;28;20455;-59
2023/02/18 13:11:23;;;;;;;1.80;1.33;;;13.00;1.00;;;;;;5009785;28;20520;-59
2023/02/18 13:14:01;;;;;;;1.80;1.70;;;12.90;1.00;;;;;;5034204;28;20501;-59
2023/02/18 13:16:29;;;;;;;1.40;1.30;;;12.80;1.00;;;;;;5036345;28;20529;-58
2023/02/18 13:19:07;;;;;;;1.50;1.40;;;12.80;1.00;;;;;;5060651;28;20916;-58